createdAt,value
2023-03-01T00:01:46.714Z,65.55
2023-03-01T00:04:36.238Z,65.49
2023-03-01T00:07:34.943Z,65.69
2023-03-01T00:10:29.962Z,66.01
2023-03-01T00:13:20.402Z,66.04
2023-03-01T00:16:13.459Z,65.91
2023-03-01T00:18:58.939Z,66.12
2023-03-01T00:21:41.705Z,66.00
2023-03-01T00:24:32.469Z,65.85
2023-03-01T00:27:23.058Z,66.02
2023-03-01T00:30:13.710Z,66.06
2023-03-01T00:33:03.631Z,66.18
2023-03-01T00:35:55.451Z,66.39
2023-03-01T00:38:46.495Z,66.45
2023-03-01T00:41:35.818Z,66.57
2023-03-01T00:44:25.256Z,66.47
2023-03-01T00:47:19.047Z,66.33
2023-03-01T00:50:12.353Z,65.99
2023-03-01T00:53:01.874Z,66.02
2023-03-01T00:55:52.249Z,66.01
2023-03-01T00:58:42.564Z,65.91
2023-03-01T01:01:32.817Z,66.14
2023-03-01T01:04:25.369Z,66.21
2023-03-01T01:07:29.099Z,66.14
2023-03-01T01:10:19.458Z,66.18
2023-03-01T01:13:09.445Z,65.97
2023-03-01T01:16:03.613Z,66.16
2023-03-01T01:18:54.767Z,66.00
2023-03-01T01:21:48.847Z,66.16
2023-03-01T01:24:37.883Z,66.44
2023-03-01T01:27:27.591Z,66.21
2023-03-01T01:30:20.843Z,66.39
2023-03-01T01:33:09.831Z,66.31
2023-03-01T01:35:59.482Z,66.56
2023-03-01T01:38:49.672Z,66.54
2023-03-01T01:41:38.988Z,66.45
2023-03-01T01:44:30.326Z,66.48
2023-03-01T01:47:24.155Z,66.53
2023-03-01T01:50:19.735Z,66.50
2023-03-01T01:53:20.605Z,66.72
2023-03-01T01:56:12.532Z,66.80
2023-03-01T01:59:03.040Z,67.09
2023-03-01T02:01:53.636Z,67.14
2023-03-01T02:04:43.216Z,66.95
2023-03-01T02:07:35.042Z,67.09
2023-03-01T02:10:25.681Z,66.83
2023-03-01T02:13:16.724Z,66.76
2023-03-01T02:16:10.714Z,66.74
2023-03-01T02:18:56.102Z,66.79
2023-03-01T02:21:52.237Z,66.84
2023-03-01T02:24:53.478Z,66.84
2023-03-01T02:28:13.266Z,66.76
2023-03-01T02:31:20.683Z,66.82
2023-03-01T02:34:12.879Z,66.85
2023-03-01T02:37:05.679Z,66.89
2023-03-01T02:40:01.141Z,67.00
2023-03-01T02:42:56.820Z,67.05
2023-03-01T02:45:54.810Z,66.98
2023-03-01T02:48:47.930Z,67.27
2023-03-01T02:51:50.683Z,67.41
2023-03-01T02:54:45.081Z,67.50
2023-03-01T02:57:37.853Z,67.30
2023-03-01T03:00:29.631Z,67.08
2023-03-01T03:03:22.323Z,67.37
2023-03-01T03:06:12.125Z,67.38
2023-03-01T03:09:02.049Z,67.29
2023-03-01T03:11:58.004Z,67.40
2023-03-01T03:14:48.506Z,67.37
2023-03-01T03:17:41.774Z,67.37
2023-03-01T03:20:32.456Z,67.40
2023-03-01T03:23:33.536Z,67.18
2023-03-01T03:26:25.770Z,67.26
2023-03-01T03:29:15.451Z,67.33
2023-03-01T03:32:05.963Z,67.46
2023-03-01T03:35:01.919Z,67.57
2023-03-01T03:38:02.900Z,67.54
2023-03-01T03:41:03.968Z,67.54
2023-03-01T03:44:02.035Z,67.49
2023-03-01T03:46:54.544Z,67.55
2023-03-01T03:49:43.960Z,67.83
2023-03-01T03:52:34.615Z,67.73
2023-03-01T03:55:30.732Z,67.61
2023-03-01T03:58:24.092Z,67.59
2023-03-01T04:01:13.672Z,67.65
2023-03-01T04:04:08.280Z,67.88
2023-03-01T04:07:00.723Z,67.77
2023-03-01T04:09:50.388Z,67.74
2023-03-01T04:12:39.914Z,67.73
2023-03-01T04:15:31.501Z,67.57
2023-03-01T04:18:25.792Z,67.68
2023-03-01T04:21:15.723Z,67.77
2023-03-01T04:24:07.683Z,67.87
2023-03-01T04:26:50.882Z,67.79
2023-03-01T04:29:40.138Z,67.69
2023-03-01T04:32:30.078Z,67.72
2023-03-01T04:35:25.042Z,67.83
2023-03-01T04:38:14.700Z,67.87
2023-03-01T04:41:04.306Z,67.93
2023-03-01T04:43:56.912Z,67.91
2023-03-01T04:47:49.856Z,68.10
2023-03-01T04:50:34.823Z,68.01
2023-03-01T04:53:33.562Z,68.23
2023-03-01T04:56:30.319Z,68.25
2023-03-01T04:59:24.153Z,68.34
2023-03-01T05:02:13.820Z,68.42
2023-03-01T05:05:06.613Z,68.28
2023-03-01T05:08:01.358Z,68.19
2023-03-01T05:10:53.598Z,68.25
2023-03-01T05:13:43.878Z,68.26
2023-03-01T05:16:40.036Z,68.24
2023-03-01T05:19:33.384Z,68.14
2023-03-01T05:22:23.586Z,68.08
2023-03-01T05:25:14.598Z,68.29
2023-03-01T05:28:05.711Z,68.06
2023-03-01T05:30:58.480Z,68.07
2023-03-01T05:33:47.930Z,68.22
2023-03-01T05:36:38.873Z,68.23
2023-03-01T05:39:55.606Z,68.27
2023-03-01T05:42:47.300Z,68.25
2023-03-01T05:45:33.185Z,68.30
2023-03-01T05:48:25.241Z,68.34
2023-03-01T05:51:14.759Z,68.45
2023-03-01T05:54:06.710Z,68.30
2023-03-01T05:57:04.289Z,68.34
2023-03-01T05:59:54.381Z,68.51
2023-03-01T06:02:45.175Z,68.51
2023-03-01T06:05:46.499Z,68.51
2023-03-01T06:08:35.734Z,68.54
2023-03-01T06:11:24.755Z,68.59
2023-03-01T06:14:15.245Z,68.69
2023-03-01T06:17:05.196Z,68.66
2023-03-01T06:19:55.637Z,68.57
2023-03-01T06:22:48.086Z,68.71
2023-03-01T06:25:29.093Z,68.83
2023-03-01T06:28:19.990Z,68.89
2023-03-01T06:31:12.570Z,68.99
2023-03-01T06:34:05.045Z,69.14
2023-03-01T06:36:57.707Z,69.04
2023-03-01T06:39:47.286Z,68.95
2023-03-01T06:42:37.379Z,69.02
2023-03-01T06:45:27.992Z,68.87
2023-03-01T06:48:17.539Z,68.84
2023-03-01T06:51:07.181Z,68.93
2023-03-01T06:55:20.170Z,69.12
2023-03-01T06:57:10.750Z,68.97
2023-03-01T07:00:01.570Z,69.00
2023-03-01T07:02:52.258Z,68.94
2023-03-01T07:05:45.001Z,69.09
2023-03-01T07:08:34.299Z,69.10
2023-03-01T07:11:25.656Z,68.87
2023-03-01T07:14:15.261Z,68.96
2023-03-01T07:17:07.714Z,69.03
2023-03-01T07:19:39.608Z,69.07
2023-03-01T07:22:11.235Z,69.12
2023-03-01T07:25:02.982Z,69.13
2023-03-01T07:27:54.160Z,69.49
2023-03-01T07:30:45.566Z,70.16
2023-03-01T07:33:35.748Z,70.58
2023-03-01T07:36:25.784Z,71.13
2023-03-01T07:39:15.137Z,71.08
2023-03-01T07:42:03.352Z,71.14
2023-03-01T07:44:52.883Z,70.71
2023-03-01T07:47:42.259Z,70.60
2023-03-01T07:50:31.409Z,70.80
2023-03-01T07:53:24.162Z,70.92
2023-03-01T07:56:18.041Z,69.72
2023-03-01T07:59:01.475Z,69.33
2023-03-01T08:01:51.812Z,69.20
2023-03-01T08:04:41.646Z,69.38
2023-03-01T08:07:33.077Z,69.44
2023-03-01T08:10:24.384Z,69.41
2023-03-01T08:13:14.513Z,69.02
2023-03-01T08:16:07.699Z,67.89
2023-03-01T08:19:01.308Z,67.34
2023-03-01T08:21:51.365Z,66.44
2023-03-01T08:24:41.098Z,66.08
2023-03-01T08:27:30.882Z,65.65
2023-03-01T08:30:24.412Z,65.54
2023-03-01T08:33:14.134Z,65.99
2023-03-01T08:36:09.139Z,66.00
2023-03-01T08:39:01.162Z,66.08
2023-03-01T08:41:51.027Z,66.42
2023-03-01T08:44:40.531Z,66.67
2023-03-01T08:47:30.198Z,66.69
2023-03-01T08:50:19.977Z,66.80
2023-03-01T08:53:13.940Z,66.85
2023-03-01T08:56:03.744Z,66.61
2023-03-01T08:58:53.479Z,66.73
2023-03-01T09:01:48.331Z,66.97
2023-03-01T09:04:38.121Z,67.06
2023-03-01T09:07:29.283Z,67.22
2023-03-01T09:10:19.270Z,67.49
2023-03-01T09:13:10.977Z,67.66
2023-03-01T09:16:02.655Z,67.43
2023-03-01T09:18:53.631Z,67.37
2023-03-01T09:21:53.020Z,67.66
2023-03-01T09:24:43.328Z,68.09
2023-03-01T09:27:34.568Z,67.78
2023-03-01T09:30:25.143Z,67.69
2023-03-01T09:33:16.874Z,67.81
2023-03-01T09:36:13.101Z,68.21
2023-03-01T09:39:06.697Z,67.59
2023-03-01T09:41:54.920Z,66.79
2023-03-01T09:44:49.905Z,66.24
2023-03-01T09:47:41.204Z,65.80
2023-03-01T09:50:40.340Z,66.07
2023-03-01T09:53:33.323Z,66.63
2023-03-01T09:56:22.291Z,66.51
2023-03-01T09:59:27.816Z,66.51
2023-03-01T10:02:28.747Z,66.60
2023-03-01T10:05:48.846Z,66.81
2023-03-01T10:08:42.954Z,67.08
2023-03-01T10:11:38.106Z,67.31
2023-03-01T10:14:37.473Z,67.01
2023-03-01T10:17:35.053Z,67.05
2023-03-01T10:20:27.680Z,66.89
2023-03-01T10:23:13.548Z,67.17
2023-03-01T10:26:29.182Z,67.17
2023-03-01T10:29:20.915Z,67.01
2023-03-01T10:32:13.663Z,67.37
2023-03-01T10:35:21.184Z,67.38
2023-03-01T10:38:16.094Z,67.13
2023-03-01T10:41:09.407Z,67.03
2023-03-01T10:44:01.335Z,66.87
2023-03-01T10:47:02.227Z,66.87
2023-03-01T10:50:06.055Z,66.96
2023-03-01T10:53:01.807Z,66.94
2023-03-01T10:56:04.889Z,66.82
2023-03-01T10:59:04.583Z,67.15
2023-03-01T11:02:24.451Z,66.91
2023-03-01T11:05:26.134Z,66.52
2023-03-01T11:08:15.597Z,66.46
2023-03-01T11:11:25.395Z,66.10
2023-03-01T11:14:26.388Z,66.12
2023-03-01T11:17:24.255Z,66.46
2023-03-01T11:20:26.234Z,66.17
2023-03-01T11:23:18.191Z,66.18
2023-03-01T11:26:03.391Z,66.24
2023-03-01T11:29:00.290Z,66.06
2023-03-01T11:31:57.674Z,66.17
2023-03-01T11:34:55.904Z,66.19
2023-03-01T11:37:57.105Z,65.80
2023-03-01T11:40:54.345Z,65.95
2023-03-01T11:43:54.719Z,66.25
2023-03-01T11:47:07.203Z,66.44
2023-03-01T11:50:42.029Z,66.00
2023-03-01T11:53:51.843Z,65.59
2023-03-01T11:56:51.394Z,65.47
2023-03-01T12:00:16.976Z,65.92
2023-03-01T12:03:31.654Z,66.22
2023-03-01T12:06:52.173Z,66.26
2023-03-01T12:09:54.000Z,66.10
2023-03-01T12:13:17.504Z,66.03
2023-03-01T12:16:37.462Z,66.03
2023-03-01T12:19:52.877Z,66.02
2023-03-01T12:22:56.621Z,66.27
2023-03-01T12:25:52.790Z,66.13
2023-03-01T12:29:02.496Z,66.13
2023-03-01T12:32:30.176Z,66.07
2023-03-01T12:35:51.071Z,65.72
2023-03-01T12:39:04.316Z,65.66
2023-03-01T12:42:08.004Z,65.61
2023-03-01T12:45:32.133Z,65.65
2023-03-01T12:48:44.283Z,65.69
2023-03-01T12:51:39.246Z,65.51
2023-03-01T12:54:31.760Z,65.82
2023-03-01T12:57:37.667Z,65.53
2023-03-01T13:00:37.987Z,65.61
2023-03-01T13:03:37.274Z,65.41
2023-03-01T13:06:42.944Z,65.90
2023-03-01T13:09:40.446Z,66.03
2023-03-01T13:13:01.327Z,65.69
2023-03-01T13:16:00.477Z,65.71
2023-03-01T13:18:51.137Z,65.73
2023-03-01T13:21:40.896Z,65.83
2023-03-01T13:24:38.475Z,65.86
2023-03-01T13:27:31.209Z,65.76
2023-03-01T13:30:43.966Z,65.56
2023-03-01T13:33:50.850Z,65.72
2023-03-01T13:36:51.103Z,65.66
2023-03-01T13:39:42.409Z,65.82
2023-03-01T13:43:05.213Z,65.75
2023-03-01T13:45:57.270Z,65.86
2023-03-01T13:48:51.662Z,65.91
2023-03-01T13:51:40.675Z,65.70
2023-03-01T13:54:33.594Z,65.72
2023-03-01T13:57:25.478Z,65.82
2023-03-01T14:00:29.779Z,65.84
2023-03-01T14:03:20.683Z,65.69
2023-03-01T14:06:17.199Z,65.81
2023-03-01T14:09:17.126Z,65.83
2023-03-01T14:12:33.996Z,65.79
2023-03-01T14:15:30.435Z,65.83
2023-03-01T14:18:27.700Z,65.98
2023-03-01T14:21:18.410Z,66.07
2023-03-01T14:24:16.155Z,66.06
2023-03-01T14:27:05.991Z,66.01
2023-03-01T14:30:04.628Z,65.94
2023-03-01T14:33:02.392Z,65.92
2023-03-01T14:35:57.862Z,66.05
2023-03-01T14:38:48.556Z,66.05
2023-03-01T14:41:37.827Z,66.04
2023-03-01T14:44:30.425Z,65.99
2023-03-01T14:47:29.348Z,66.05
2023-03-01T14:50:25.043Z,66.02
2023-03-01T14:53:21.070Z,66.00
2023-03-01T14:56:18.130Z,65.84
2023-03-01T14:59:12.245Z,65.86
2023-03-01T15:02:04.896Z,65.85
2023-03-01T15:05:08.128Z,65.80
2023-03-01T15:08:00.818Z,65.92
2023-03-01T15:11:03.541Z,65.91
2023-03-01T15:13:55.089Z,65.89
2023-03-01T15:16:49.860Z,65.90
2023-03-01T15:19:40.931Z,65.80
2023-03-01T15:22:37.154Z,65.87
2023-03-01T15:25:30.450Z,65.83
2023-03-01T15:28:21.526Z,65.77
2023-03-01T15:31:20.861Z,65.87
2023-03-01T15:34:25.763Z,65.84
2023-03-01T15:37:44.929Z,65.90
2023-03-01T15:40:52.488Z,66.06
2023-03-01T15:43:46.013Z,66.07
2023-03-01T15:46:39.530Z,66.18
2023-03-01T15:49:49.581Z,66.22
2023-03-01T15:52:44.344Z,66.20
2023-03-01T15:55:34.526Z,66.12
2023-03-01T15:58:26.216Z,65.94
2023-03-01T16:01:17.987Z,66.00
2023-03-01T16:04:07.820Z,65.89
2023-03-01T16:06:57.434Z,65.73
2023-03-01T16:09:46.656Z,65.73
2023-03-01T16:12:36.362Z,65.77
2023-03-01T16:15:31.968Z,65.71
2023-03-01T16:18:22.910Z,65.82
2023-03-01T16:21:25.233Z,65.80
2023-03-01T16:24:15.025Z,65.83
2023-03-01T16:27:04.561Z,66.01
2023-03-01T16:29:54.211Z,65.98
2023-03-01T16:32:47.155Z,66.01
2023-03-01T16:35:42.109Z,65.95
2023-03-01T16:38:33.132Z,66.04
2023-03-01T16:41:24.969Z,66.04
2023-03-01T16:44:13.810Z,66.03
2023-03-01T16:47:04.362Z,66.18
2023-03-01T16:49:54.635Z,66.20
2023-03-01T16:52:44.165Z,66.36
2023-03-01T16:55:34.778Z,66.40
2023-03-01T16:58:25.818Z,66.36
2023-03-01T17:01:17.764Z,66.42
2023-03-01T17:04:08.056Z,66.44
2023-03-01T17:06:58.746Z,66.42
2023-03-01T17:09:48.510Z,66.53
2023-03-01T17:12:36.718Z,66.52
2023-03-01T17:15:26.676Z,66.47
2023-03-01T17:18:15.882Z,66.50
2023-03-01T17:21:08.105Z,66.68
2023-03-01T17:23:58.709Z,66.48
2023-03-01T17:26:48.310Z,66.48
2023-03-01T17:29:36.211Z,66.66
2023-03-01T17:32:25.605Z,66.70
2023-03-01T17:35:15.987Z,66.68
2023-03-01T17:38:13.951Z,66.28
2023-03-01T17:41:04.960Z,66.17
2023-03-01T17:43:54.258Z,66.19
2023-03-01T17:46:49.554Z,66.05
2023-03-01T17:49:40.545Z,66.08
2023-03-01T17:52:35.776Z,66.11
2023-03-01T17:55:28.322Z,66.24
2023-03-01T17:58:22.137Z,66.45
2023-03-01T18:01:14.597Z,66.40
2023-03-01T18:03:57.634Z,66.45
2023-03-01T18:06:47.174Z,66.26
2023-03-01T18:09:36.708Z,66.14
2023-03-01T18:12:30.402Z,66.48
2023-03-01T18:15:21.288Z,66.51
2023-03-01T18:18:11.187Z,66.48
2023-03-01T18:21:04.769Z,66.59
2023-03-01T18:23:56.728Z,66.65
2023-03-01T18:26:47.773Z,66.70
2023-03-01T18:29:40.621Z,66.51
2023-03-01T18:32:32.548Z,66.31
2023-03-01T18:35:24.281Z,66.43
2023-03-01T18:38:19.000Z,66.50
2023-03-01T18:41:08.619Z,66.43
2023-03-01T18:43:58.843Z,66.21
2023-03-01T18:46:52.991Z,66.55
2023-03-01T18:49:43.627Z,66.56
2023-03-01T18:52:34.554Z,66.37
2023-03-01T18:55:24.887Z,66.84
2023-03-01T18:58:13.841Z,66.97
2023-03-01T19:01:22.676Z,66.72
2023-03-01T19:04:15.404Z,66.73
2023-03-01T19:07:06.294Z,66.91
2023-03-01T19:09:56.117Z,66.61
2023-03-01T19:12:46.077Z,66.53
2023-03-01T19:15:37.158Z,66.61
2023-03-01T19:18:26.734Z,66.65
2023-03-01T19:21:18.198Z,66.41
2023-03-01T19:24:07.903Z,66.47
2023-03-01T19:26:57.438Z,66.40
2023-03-01T19:29:47.222Z,66.39
2023-03-01T19:32:36.985Z,66.37
2023-03-01T19:35:26.511Z,66.33
2023-03-01T19:38:15.807Z,66.46
2023-03-01T19:41:08.603Z,66.59
2023-03-01T19:44:03.086Z,66.81
2023-03-01T19:46:58.594Z,67.09
2023-03-01T19:49:47.114Z,67.12
2023-03-01T19:52:33.124Z,67.10
2023-03-01T19:55:23.353Z,66.82
2023-03-01T19:58:13.389Z,66.77
2023-03-01T20:01:05.645Z,67.05
2023-03-01T20:03:55.120Z,66.82
2023-03-01T20:06:47.030Z,66.81
2023-03-01T20:09:27.737Z,66.93
2023-03-01T20:12:19.528Z,66.88
2023-03-01T20:15:10.548Z,66.79
2023-03-01T20:18:00.141Z,66.68
2023-03-01T20:20:50.674Z,66.73
2023-03-01T20:23:43.505Z,66.69
2023-03-01T20:26:33.918Z,66.80
2023-03-01T20:29:06.893Z,66.79
2023-03-01T20:31:56.673Z,67.02
2023-03-01T20:34:46.344Z,67.28
2023-03-01T20:37:35.995Z,67.44
2023-03-01T20:40:27.786Z,67.35
2023-03-01T20:43:17.021Z,67.61
2023-03-01T20:46:10.675Z,67.50
2023-03-01T20:49:01.283Z,67.50
2023-03-01T20:51:50.945Z,67.42
2023-03-01T20:54:39.341Z,67.31
2023-03-01T20:57:28.892Z,67.33
2023-03-01T21:00:19.399Z,67.54
2023-03-01T21:03:09.198Z,67.72
2023-03-01T21:05:58.855Z,67.70
2023-03-01T21:08:48.968Z,67.74
2023-03-01T21:11:32.907Z,67.73
2023-03-01T21:14:16.177Z,67.83
2023-03-01T21:17:05.247Z,67.66
2023-03-01T21:19:55.062Z,67.45
2023-03-01T21:22:44.054Z,67.25
2023-03-01T21:25:34.423Z,67.29
2023-03-01T21:28:12.230Z,67.29
2023-03-01T21:31:06.481Z,67.21
2023-03-01T21:33:57.616Z,67.25
2023-03-01T21:36:39.651Z,67.41
2023-03-01T21:39:29.224Z,67.40
2023-03-01T21:42:17.957Z,67.49
2023-03-01T21:45:09.039Z,67.91
2023-03-01T21:47:58.513Z,68.20
2023-03-01T21:50:55.873Z,68.42
2023-03-01T21:53:45.597Z,68.50
2023-03-01T21:56:38.193Z,68.26
2023-03-01T21:59:28.444Z,68.36
2023-03-01T22:02:17.488Z,68.43
2023-03-01T22:05:08.750Z,68.44
2023-03-01T22:07:47.936Z,67.84
2023-03-01T22:10:43.039Z,67.71
2023-03-01T22:13:31.927Z,67.71
2023-03-01T22:16:22.625Z,67.61
2023-03-01T22:19:16.497Z,67.51
2023-03-01T22:22:05.544Z,67.41
2023-03-01T22:24:45.956Z,67.39
2023-03-01T22:27:36.679Z,67.40
2023-03-01T22:30:26.772Z,67.50
2023-03-01T22:33:15.822Z,67.45
2023-03-01T22:36:04.897Z,67.58
2023-03-01T22:38:59.409Z,67.61
2023-03-01T22:41:49.849Z,67.64
2023-03-01T22:44:38.911Z,67.64
2023-03-01T22:47:37.596Z,67.82
2023-03-01T22:50:26.533Z,68.20
2023-03-01T22:53:16.373Z,68.59
2023-03-01T22:56:14.479Z,68.65
2023-03-01T22:59:09.046Z,68.60
2023-03-01T23:01:49.016Z,68.31
2023-03-01T23:04:38.803Z,68.20
2023-03-01T23:07:28.737Z,68.14
2023-03-01T23:10:18.035Z,67.99
2023-03-01T23:13:07.190Z,68.19
2023-03-01T23:15:57.500Z,68.03
2023-03-01T23:18:46.955Z,68.04
2023-03-01T23:21:36.032Z,68.02
2023-03-01T23:24:30.773Z,68.06
2023-03-01T23:27:19.733Z,68.14
2023-03-01T23:30:11.212Z,68.15
2023-03-01T23:33:00.203Z,68.13
2023-03-01T23:35:48.487Z,68.16
2023-03-01T23:38:37.504Z,68.21
2023-03-01T23:41:29.804Z,68.41
2023-03-01T23:44:21.119Z,68.33
2023-03-01T23:47:10.211Z,68.32
2023-03-01T23:50:00.077Z,68.55
2023-03-01T23:52:50.070Z,68.45
2023-03-01T23:56:01.180Z,68.30
2023-03-01T23:58:51.137Z,68.46
